sensor_id;sensor_type;location;lat;lon;timestamp;P1;durP1;ratioP1;P2;durP2;ratioP2
15454;SDS011;21057;51.024;7.540;2023-02-12T00:01:01;93.27;;;52.20;;
15454;SDS011;21057;51.024;7.540;2023-02-12T00:03:32;97.37;;;53.13;;
15454;SDS011;21057;51.024;7.540;2023-02-12T00:05:59;92.93;;;55.87;;
15454;SDS011;21057;51.024;7.540;2023-02-12T00:08:27;88.27;;;49.00;;
15454;SDS011;21057;51.024;7.540;2023-02-12T00:10:54;78.83;;;49.87;;
15454;SDS011;21057;51.024;7.540;2023-02-12T00:13:21;70.27;;;49.77;;
15454;SDS011;21057;51.024;7.540;2023-02-12T00:15:48;75.50;;;51.07;;
15454;SDS011;21057;51.024;7.540;2023-02-12T00:18:17;95.40;;;51.63;;
15454;SDS011;21057;51.024;7.540;2023-02-12T00:20:43;92.80;;;50.23;;
15454;SDS011;21057;51.024;7.540;2023-02-12T00:23:10;94.37;;;50.27;;
15454;SDS011;21057;51.024;7.540;2023-02-12T00:25:39;91.80;;;52.20;;
15454;SDS011;21057;51.024;7.540;2023-02-12T00:28:06;75.67;;;51.57;;
15454;SDS011;21057;51.024;7.540;2023-02-12T00:30:35;90.07;;;51.07;;
15454;SDS011;21057;51.024;7.540;2023-02-12T00:33:02;95.13;;;50.17;;
15454;SDS011;21057;51.024;7.540;2023-02-12T00:35:31;88.10;;;52.33;;
15454;SDS011;21057;51.024;7.540;2023-02-12T00:37:59;85.57;;;50.73;;
15454;SDS011;21057;51.024;7.540;2023-02-12T00:40:26;82.37;;;53.47;;
15454;SDS011;21057;51.024;7.540;2023-02-12T00:42:54;75.17;;;50.07;;
15454;SDS011;21057;51.024;7.540;2023-02-12T00:45:21;77.57;;;50.83;;
15454;SDS011;21057;51.024;7.540;2023-02-12T00:47:47;68.40;;;50.97;;
15454;SDS011;21057;51.024;7.540;2023-02-12T00:50:14;92.57;;;51.20;;
15454;SDS011;21057;51.024;7.540;2023-02-12T00:52:43;78.33;;;53.17;;
15454;SDS011;21057;51.024;7.540;2023-02-12T00:55:09;87.07;;;50.93;;
15454;SDS011;21057;51.024;7.540;2023-02-12T00:57:37;87.33;;;55.33;;
15454;SDS011;21057;51.024;7.540;2023-02-12T01:00:05;69.67;;;51.43;;
15454;SDS011;21057;51.024;7.540;2023-02-12T01:02:32;79.30;;;51.20;;
15454;SDS011;21057;51.024;7.540;2023-02-12T01:04:59;77.27;;;46.93;;
15454;SDS011;21057;51.024;7.540;2023-02-12T01:07:26;73.77;;;49.37;;
15454;SDS011;21057;51.024;7.540;2023-02-12T01:09:54;84.17;;;47.60;;
15454;SDS011;21057;51.024;7.540;2023-02-12T01:12:21;80.80;;;51.03;;
15454;SDS011;21057;51.024;7.540;2023-02-12T01:14:48;77.27;;;49.13;;
15454;SDS011;21057;51.024;7.540;2023-02-12T01:17:14;70.30;;;50.73;;
15454;SDS011;21057;51.024;7.540;2023-02-12T01:19:41;71.77;;;48.77;;
15454;SDS011;21057;51.024;7.540;2023-02-12T01:22:08;91.17;;;51.47;;
15454;SDS011;21057;51.024;7.540;2023-02-12T01:24:35;84.87;;;51.67;;
15454;SDS011;21057;51.024;7.540;2023-02-12T01:27:03;77.70;;;51.67;;
15454;SDS011;21057;51.024;7.540;2023-02-12T01:29:30;81.50;;;51.63;;
15454;SDS011;21057;51.024;7.540;2023-02-12T01:31:57;66.53;;;49.57;;
15454;SDS011;21057;51.024;7.540;2023-02-12T01:34:24;80.77;;;50.10;;
15454;SDS011;21057;51.024;7.540;2023-02-12T01:36:51;80.30;;;50.07;;
15454;SDS011;21057;51.024;7.540;2023-02-12T01:39:17;88.80;;;51.33;;
15454;SDS011;21057;51.024;7.540;2023-02-12T01:41:44;92.87;;;49.50;;
15454;SDS011;21057;51.024;7.540;2023-02-12T01:44:15;83.73;;;50.57;;
15454;SDS011;21057;51.024;7.540;2023-02-12T01:46:43;72.40;;;46.43;;
15454;SDS011;21057;51.024;7.540;2023-02-12T01:49:12;84.00;;;49.27;;
15454;SDS011;21057;51.024;7.540;2023-02-12T01:51:46;79.47;;;47.80;;
15454;SDS011;21057;51.024;7.540;2023-02-12T01:54:16;88.00;;;48.00;;
15454;SDS011;21057;51.024;7.540;2023-02-12T01:56:46;83.93;;;49.43;;
15454;SDS011;21057;51.024;7.540;2023-02-12T01:59:15;71.80;;;47.73;;
15454;SDS011;21057;51.024;7.540;2023-02-12T02:01:44;81.43;;;49.30;;
15454;SDS011;21057;51.024;7.540;2023-02-12T02:04:12;66.53;;;47.70;;
15454;SDS011;21057;51.024;7.540;2023-02-12T02:06:43;72.87;;;49.33;;
15454;SDS011;21057;51.024;7.540;2023-02-12T02:09:13;80.73;;;50.27;;
15454;SDS011;21057;51.024;7.540;2023-02-12T02:11:42;75.77;;;47.53;;
15454;SDS011;21057;51.024;7.540;2023-02-12T02:14:28;79.43;;;47.27;;
15454;SDS011;21057;51.024;7.540;2023-02-12T02:19:42;69.07;;;45.53;;
15454;SDS011;21057;51.024;7.540;2023-02-12T02:22:35;73.03;;;45.43;;
15454;SDS011;21057;51.024;7.540;2023-02-12T02:28:11;63.33;;;44.23;;
15454;SDS011;21057;51.024;7.540;2023-02-12T02:31:01;62.43;;;45.17;;
15454;SDS011;21057;51.024;7.540;2023-02-12T02:33:38;69.57;;;47.33;;
15454;SDS011;21057;51.024;7.540;2023-02-12T02:36:14;75.13;;;45.90;;
15454;SDS011;21057;51.024;7.540;2023-02-12T02:38:50;68.30;;;44.60;;
15454;SDS011;21057;51.024;7.540;2023-02-12T02:41:23;77.93;;;48.63;;
15454;SDS011;21057;51.024;7.540;2023-02-12T02:43:57;70.20;;;46.50;;
15454;SDS011;21057;51.024;7.540;2023-02-12T02:46:29;82.97;;;48.50;;
15454;SDS011;21057;51.024;7.540;2023-02-12T02:48:59;69.67;;;46.57;;
15454;SDS011;21057;51.024;7.540;2023-02-12T02:51:30;79.63;;;46.87;;
15454;SDS011;21057;51.024;7.540;2023-02-12T02:54:01;67.97;;;46.90;;
15454;SDS011;21057;51.024;7.540;2023-02-12T02:56:32;82.30;;;48.40;;
15454;SDS011;21057;51.024;7.540;2023-02-12T02:59:03;67.77;;;49.73;;
15454;SDS011;21057;51.024;7.540;2023-02-12T03:01:35;73.50;;;48.93;;
15454;SDS011;21057;51.024;7.540;2023-02-12T03:04:09;77.37;;;47.97;;
15454;SDS011;21057;51.024;7.540;2023-02-12T03:06:41;73.23;;;50.07;;
15454;SDS011;21057;51.024;7.540;2023-02-12T03:09:14;82.00;;;48.97;;
15454;SDS011;21057;51.024;7.540;2023-02-12T03:11:44;63.83;;;50.10;;
15454;SDS011;21057;51.024;7.540;2023-02-12T03:14:13;69.60;;;47.43;;
15454;SDS011;21057;51.024;7.540;2023-02-12T03:16:46;58.43;;;47.73;;
15454;SDS011;21057;51.024;7.540;2023-02-12T03:19:18;58.20;;;43.47;;
15454;SDS011;21057;51.024;7.540;2023-02-12T03:21:49;70.33;;;45.27;;
15454;SDS011;21057;51.024;7.540;2023-02-12T03:24:20;77.57;;;49.83;;
15454;SDS011;21057;51.024;7.540;2023-02-12T03:26:53;76.33;;;49.20;;
15454;SDS011;21057;51.024;7.540;2023-02-12T03:29:25;72.67;;;48.80;;
15454;SDS011;21057;51.024;7.540;2023-02-12T03:31:55;77.10;;;48.93;;
15454;SDS011;21057;51.024;7.540;2023-02-12T03:34:31;64.40;;;45.83;;
15454;SDS011;21057;51.024;7.540;2023-02-12T03:37:09;75.00;;;45.57;;
15454;SDS011;21057;51.024;7.540;2023-02-12T03:39:42;81.80;;;44.93;;
15454;SDS011;21057;51.024;7.540;2023-02-12T03:42:17;78.57;;;47.33;;
15454;SDS011;21057;51.024;7.540;2023-02-12T03:44:51;62.07;;;45.50;;
15454;SDS011;21057;51.024;7.540;2023-02-12T03:47:24;76.07;;;48.27;;
15454;SDS011;21057;51.024;7.540;2023-02-12T03:50:02;72.33;;;44.07;;
15454;SDS011;21057;51.024;7.540;2023-02-12T03:52:32;72.47;;;46.17;;
15454;SDS011;21057;51.024;7.540;2023-02-12T03:55:00;79.20;;;47.27;;
15454;SDS011;21057;51.024;7.540;2023-02-12T03:57:28;68.00;;;46.73;;
15454;SDS011;21057;51.024;7.540;2023-02-12T03:59:59;67.10;;;48.27;;
15454;SDS011;21057;51.024;7.540;2023-02-12T04:02:30;71.10;;;45.83;;
15454;SDS011;21057;51.024;7.540;2023-02-12T04:05:02;81.07;;;46.13;;
15454;SDS011;21057;51.024;7.540;2023-02-12T04:07:30;69.50;;;46.20;;
15454;SDS011;21057;51.024;7.540;2023-02-12T04:09:58;74.03;;;46.40;;
15454;SDS011;21057;51.024;7.540;2023-02-12T04:12:29;67.00;;;44.93;;
15454;SDS011;21057;51.024;7.540;2023-02-12T04:15:07;71.30;;;45.17;;
15454;SDS011;21057;51.024;7.540;2023-02-12T04:17:49;76.23;;;44.60;;
15454;SDS011;21057;51.024;7.540;2023-02-12T04:20:22;60.37;;;45.03;;
15454;SDS011;21057;51.024;7.540;2023-02-12T04:22:59;79.10;;;45.50;;
15454;SDS011;21057;51.024;7.540;2023-02-12T04:25:38;70.23;;;48.27;;
15454;SDS011;21057;51.024;7.540;2023-02-12T04:28:13;68.53;;;46.73;;
15454;SDS011;21057;51.024;7.540;2023-02-12T04:30:50;55.83;;;46.20;;
15454;SDS011;21057;51.024;7.540;2023-02-12T04:33:24;63.20;;;46.27;;
15454;SDS011;21057;51.024;7.540;2023-02-12T04:35:54;67.17;;;49.87;;
15454;SDS011;21057;51.024;7.540;2023-02-12T04:38:27;73.03;;;48.37;;
15454;SDS011;21057;51.024;7.540;2023-02-12T04:41:00;71.07;;;49.47;;
15454;SDS011;21057;51.024;7.540;2023-02-12T04:43:30;73.43;;;46.70;;
15454;SDS011;21057;51.024;7.540;2023-02-12T04:46:00;75.50;;;48.37;;
15454;SDS011;21057;51.024;7.540;2023-02-12T04:48:29;64.40;;;45.10;;
15454;SDS011;21057;51.024;7.540;2023-02-12T04:51:00;56.20;;;44.93;;
15454;SDS011;21057;51.024;7.540;2023-02-12T04:53:27;63.63;;;45.10;;
15454;SDS011;21057;51.024;7.540;2023-02-12T04:55:54;60.90;;;45.17;;
15454;SDS011;21057;51.024;7.540;2023-02-12T04:58:21;64.13;;;45.07;;
15454;SDS011;21057;51.024;7.540;2023-02-12T05:00:48;67.50;;;46.63;;
15454;SDS011;21057;51.024;7.540;2023-02-12T05:03:15;84.43;;;47.80;;
15454;SDS011;21057;51.024;7.540;2023-02-12T05:05:43;53.83;;;43.23;;
15454;SDS011;21057;51.024;7.540;2023-02-12T05:08:16;55.67;;;44.30;;
15454;SDS011;21057;51.024;7.540;2023-02-12T05:10:42;61.27;;;44.60;;
15454;SDS011;21057;51.024;7.540;2023-02-12T05:13:09;71.43;;;46.50;;
15454;SDS011;21057;51.024;7.540;2023-02-12T05:15:37;53.97;;;46.27;;
15454;SDS011;21057;51.024;7.540;2023-02-12T05:18:05;80.20;;;46.83;;
15454;SDS011;21057;51.024;7.540;2023-02-12T05:20:32;59.13;;;43.03;;
15454;SDS011;21057;51.024;7.540;2023-02-12T05:23:00;56.50;;;43.43;;
15454;SDS011;21057;51.024;7.540;2023-02-12T05:25:26;71.20;;;47.00;;
15454;SDS011;21057;51.024;7.540;2023-02-12T05:27:53;77.80;;;46.73;;
15454;SDS011;21057;51.024;7.540;2023-02-12T05:30:21;66.00;;;47.07;;
15454;SDS011;21057;51.024;7.540;2023-02-12T05:32:48;68.00;;;47.67;;
15454;SDS011;21057;51.024;7.540;2023-02-12T05:35:15;70.60;;;47.77;;
15454;SDS011;21057;51.024;7.540;2023-02-12T05:37:42;69.37;;;48.07;;
15454;SDS011;21057;51.024;7.540;2023-02-12T05:40:10;63.53;;;48.43;;
15454;SDS011;21057;51.024;7.540;2023-02-12T05:42:38;69.17;;;47.77;;
15454;SDS011;21057;51.024;7.540;2023-02-12T05:45:05;65.90;;;46.87;;
15454;SDS011;21057;51.024;7.540;2023-02-12T05:47:32;56.40;;;46.10;;
15454;SDS011;21057;51.024;7.540;2023-02-12T05:49:59;65.93;;;47.40;;
15454;SDS011;21057;51.024;7.540;2023-02-12T05:52:26;72.70;;;49.50;;
15454;SDS011;21057;51.024;7.540;2023-02-12T05:54:53;62.80;;;45.90;;
15454;SDS011;21057;51.024;7.540;2023-02-12T05:57:21;69.80;;;47.53;;
15454;SDS011;21057;51.024;7.540;2023-02-12T05:59:48;55.37;;;44.33;;
15454;SDS011;21057;51.024;7.540;2023-02-12T06:02:15;68.97;;;43.67;;
15454;SDS011;21057;51.024;7.540;2023-02-12T06:04:41;56.93;;;46.93;;
15454;SDS011;21057;51.024;7.540;2023-02-12T06:07:08;66.97;;;46.73;;
15454;SDS011;21057;51.024;7.540;2023-02-12T06:09:35;59.47;;;45.47;;
15454;SDS011;21057;51.024;7.540;2023-02-12T06:12:03;67.97;;;45.37;;
15454;SDS011;21057;51.024;7.540;2023-02-12T06:14:31;67.07;;;47.63;;
15454;SDS011;21057;51.024;7.540;2023-02-12T06:17:00;52.70;;;43.20;;
15454;SDS011;21057;51.024;7.540;2023-02-12T06:19:27;65.43;;;46.30;;
15454;SDS011;21057;51.024;7.540;2023-02-12T06:21:53;63.13;;;46.77;;
15454;SDS011;21057;51.024;7.540;2023-02-12T06:24:20;68.20;;;46.60;;
15454;SDS011;21057;51.024;7.540;2023-02-12T06:26:50;62.40;;;46.63;;
15454;SDS011;21057;51.024;7.540;2023-02-12T06:29:17;54.67;;;44.97;;
15454;SDS011;21057;51.024;7.540;2023-02-12T06:31:47;60.33;;;43.03;;
15454;SDS011;21057;51.024;7.540;2023-02-12T06:34:20;72.40;;;45.40;;
15454;SDS011;21057;51.024;7.540;2023-02-12T06:36:47;78.03;;;48.07;;
15454;SDS011;21057;51.024;7.540;2023-02-12T06:39:15;64.80;;;50.20;;
15454;SDS011;21057;51.024;7.540;2023-02-12T06:41:42;63.73;;;47.73;;
15454;SDS011;21057;51.024;7.540;2023-02-12T06:44:10;59.70;;;48.60;;
15454;SDS011;21057;51.024;7.540;2023-02-12T06:46:37;68.87;;;50.23;;
15454;SDS011;21057;51.024;7.540;2023-02-12T06:49:05;64.03;;;44.67;;
15454;SDS011;21057;51.024;7.540;2023-02-12T06:51:32;64.03;;;46.80;;
15454;SDS011;21057;51.024;7.540;2023-02-12T06:54:00;73.10;;;46.47;;
15454;SDS011;21057;51.024;7.540;2023-02-12T06:56:28;62.33;;;46.07;;
15454;SDS011;21057;51.024;7.540;2023-02-12T06:58:56;70.23;;;48.17;;
15454;SDS011;21057;51.024;7.540;2023-02-12T07:01:25;66.13;;;47.73;;
15454;SDS011;21057;51.024;7.540;2023-02-12T07:03:54;61.60;;;44.73;;
15454;SDS011;21057;51.024;7.540;2023-02-12T07:06:23;50.97;;;43.60;;
15454;SDS011;21057;51.024;7.540;2023-02-12T07:08:51;70.97;;;44.77;;
15454;SDS011;21057;51.024;7.540;2023-02-12T07:11:21;122.67;;;46.17;;
15454;SDS011;21057;51.024;7.540;2023-02-12T07:13:49;105.87;;;45.83;;
15454;SDS011;21057;51.024;7.540;2023-02-12T07:16:16;96.17;;;47.63;;
15454;SDS011;21057;51.024;7.540;2023-02-12T07:18:43;122.43;;;47.37;;
15454;SDS011;21057;51.024;7.540;2023-02-12T07:21:11;79.87;;;43.97;;
15454;SDS011;21057;51.024;7.540;2023-02-12T07:23:40;73.10;;;46.90;;
15454;SDS011;21057;51.024;7.540;2023-02-12T07:26:08;86.33;;;46.07;;
15454;SDS011;21057;51.024;7.540;2023-02-12T07:28:37;75.40;;;44.33;;
15454;SDS011;21057;51.024;7.540;2023-02-12T07:31:05;58.43;;;43.97;;
15454;SDS011;21057;51.024;7.540;2023-02-12T07:33:34;76.30;;;46.50;;
15454;SDS011;21057;51.024;7.540;2023-02-12T07:36:02;64.43;;;45.37;;
15454;SDS011;21057;51.024;7.540;2023-02-12T07:38:30;63.10;;;46.77;;
15454;SDS011;21057;51.024;7.540;2023-02-12T07:41:10;56.43;;;46.37;;
15454;SDS011;21057;51.024;7.540;2023-02-12T07:43:38;64.17;;;42.70;;
15454;SDS011;21057;51.024;7.540;2023-02-12T07:46:08;65.43;;;45.20;;
15454;SDS011;21057;51.024;7.540;2023-02-12T07:48:36;107.73;;;46.37;;
15454;SDS011;21057;51.024;7.540;2023-02-12T07:51:04;76.53;;;45.03;;
15454;SDS011;21057;51.024;7.540;2023-02-12T07:53:31;75.10;;;43.80;;
15454;SDS011;21057;51.024;7.540;2023-02-12T07:56:05;75.90;;;45.43;;
15454;SDS011;21057;51.024;7.540;2023-02-12T07:58:35;70.97;;;44.87;;
15454;SDS011;21057;51.024;7.540;2023-02-12T08:01:16;64.20;;;44.60;;
15454;SDS011;21057;51.024;7.540;2023-02-12T08:03:45;70.73;;;45.33;;
15454;SDS011;21057;51.024;7.540;2023-02-12T08:06:15;63.83;;;43.53;;
15454;SDS011;21057;51.024;7.540;2023-02-12T08:08:44;59.30;;;44.70;;
15454;SDS011;21057;51.024;7.540;2023-02-12T08:11:11;73.17;;;42.83;;
15454;SDS011;21057;51.024;7.540;2023-02-12T08:13:41;68.07;;;43.17;;
15454;SDS011;21057;51.024;7.540;2023-02-12T08:16:11;60.47;;;40.83;;
15454;SDS011;21057;51.024;7.540;2023-02-12T08:18:39;63.57;;;42.40;;
15454;SDS011;21057;51.024;7.540;2023-02-12T08:21:09;64.37;;;40.83;;
15454;SDS011;21057;51.024;7.540;2023-02-12T08:23:37;59.30;;;42.17;;
15454;SDS011;21057;51.024;7.540;2023-02-12T08:26:05;72.50;;;44.23;;
15454;SDS011;21057;51.024;7.540;2023-02-12T08:28:34;61.70;;;42.67;;
15454;SDS011;21057;51.024;7.540;2023-02-12T08:31:05;63.63;;;41.90;;
15454;SDS011;21057;51.024;7.540;2023-02-12T08:33:34;67.70;;;44.77;;
15454;SDS011;21057;51.024;7.540;2023-02-12T08:36:03;71.40;;;45.40;;
15454;SDS011;21057;51.024;7.540;2023-02-12T08:38:33;66.90;;;44.80;;
15454;SDS011;21057;51.024;7.540;2023-02-12T08:41:01;71.27;;;45.77;;
15454;SDS011;21057;51.024;7.540;2023-02-12T08:43:29;58.00;;;43.57;;
15454;SDS011;21057;51.024;7.540;2023-02-12T08:46:05;56.50;;;42.83;;
15454;SDS011;21057;51.024;7.540;2023-02-12T08:48:34;61.13;;;42.40;;
15454;SDS011;21057;51.024;7.540;2023-02-12T08:51:05;66.17;;;42.23;;
15454;SDS011;21057;51.024;7.540;2023-02-12T08:53:33;61.10;;;43.53;;
15454;SDS011;21057;51.024;7.540;2023-02-12T08:56:00;63.60;;;43.87;;
15454;SDS011;21057;51.024;7.540;2023-02-12T08:58:28;63.07;;;46.17;;
15454;SDS011;21057;51.024;7.540;2023-02-12T09:00:55;66.97;;;47.47;;
15454;SDS011;21057;51.024;7.540;2023-02-12T09:03:29;54.80;;;44.40;;
15454;SDS011;21057;51.024;7.540;2023-02-12T09:05:56;69.37;;;45.90;;
15454;SDS011;21057;51.024;7.540;2023-02-12T09:08:23;55.87;;;43.20;;
15454;SDS011;21057;51.024;7.540;2023-02-12T09:10:50;66.10;;;45.13;;
15454;SDS011;21057;51.024;7.540;2023-02-12T09:13:17;65.17;;;43.07;;
15454;SDS011;21057;51.024;7.540;2023-02-12T09:15:49;60.30;;;43.07;;
15454;SDS011;21057;51.024;7.540;2023-02-12T09:18:16;75.60;;;43.90;;
15454;SDS011;21057;51.024;7.540;2023-02-12T09:20:45;50.60;;;41.53;;
15454;SDS011;21057;51.024;7.540;2023-02-12T09:23:12;53.00;;;41.17;;
15454;SDS011;21057;51.024;7.540;2023-02-12T09:25:40;53.67;;;41.70;;
15454;SDS011;21057;51.024;7.540;2023-02-12T09:28:07;61.17;;;40.80;;
15454;SDS011;21057;51.024;7.540;2023-02-12T09:30:35;55.23;;;43.33;;
15454;SDS011;21057;51.024;7.540;2023-02-12T09:33:03;54.77;;;44.97;;
15454;SDS011;21057;51.024;7.540;2023-02-12T09:35:29;58.97;;;42.27;;
15454;SDS011;21057;51.024;7.540;2023-02-12T09:38:00;52.33;;;40.57;;
15454;SDS011;21057;51.024;7.540;2023-02-12T09:40:32;54.63;;;41.00;;
15454;SDS011;21057;51.024;7.540;2023-02-12T09:43:05;58.70;;;44.33;;
15454;SDS011;21057;51.024;7.540;2023-02-12T09:45:40;55.20;;;41.70;;
15454;SDS011;21057;51.024;7.540;2023-02-12T09:48:14;57.50;;;42.90;;
15454;SDS011;21057;51.024;7.540;2023-02-12T09:50:55;48.97;;;42.07;;
15454;SDS011;21057;51.024;7.540;2023-02-12T09:53:26;51.60;;;40.60;;
15454;SDS011;21057;51.024;7.540;2023-02-12T09:55:59;56.00;;;38.70;;
15454;SDS011;21057;51.024;7.540;2023-02-12T09:58:28;47.27;;;38.57;;
15454;SDS011;21057;51.024;7.540;2023-02-12T10:01:03;60.23;;;39.47;;
15454;SDS011;21057;51.024;7.540;2023-02-12T10:03:38;47.00;;;37.27;;
15454;SDS011;21057;51.024;7.540;2023-02-12T10:06:06;46.70;;;38.93;;
15454;SDS011;21057;51.024;7.540;2023-02-12T10:08:42;56.30;;;41.13;;
15454;SDS011;21057;51.024;7.540;2023-02-12T10:11:29;47.80;;;37.07;;
15454;SDS011;21057;51.024;7.540;2023-02-12T10:14:24;48.17;;;39.03;;
15454;SDS011;21057;51.024;7.540;2023-02-12T10:17:17;53.83;;;36.23;;
15454;SDS011;21057;51.024;7.540;2023-02-12T10:20:05;46.23;;;36.47;;
15454;SDS011;21057;51.024;7.540;2023-02-12T10:22:55;51.80;;;37.27;;
15454;SDS011;21057;51.024;7.540;2023-02-12T10:25:38;45.93;;;38.17;;
15454;SDS011;21057;51.024;7.540;2023-02-12T10:28:10;50.17;;;36.47;;
15454;SDS011;21057;51.024;7.540;2023-02-12T10:30:42;41.70;;;34.97;;
15454;SDS011;21057;51.024;7.540;2023-02-12T10:33:15;50.53;;;33.70;;
15454;SDS011;21057;51.024;7.540;2023-02-12T10:35:46;42.47;;;34.43;;
15454;SDS011;21057;51.024;7.540;2023-02-12T10:38:16;39.17;;;32.70;;
15454;SDS011;21057;51.024;7.540;2023-02-12T10:40:47;51.13;;;35.10;;
15454;SDS011;21057;51.024;7.540;2023-02-12T10:43:15;42.90;;;34.87;;
15454;SDS011;21057;51.024;7.540;2023-02-12T10:45:43;51.47;;;36.70;;
15454;SDS011;21057;51.024;7.540;2023-02-12T10:50:55;46.67;;;33.13;;
15454;SDS011;21057;51.024;7.540;2023-02-12T10:53:41;55.40;;;33.33;;
15454;SDS011;21057;51.024;7.540;2023-02-12T10:56:13;52.87;;;34.97;;
15454;SDS011;21057;51.024;7.540;2023-02-12T10:58:49;45.53;;;34.00;;
15454;SDS011;21057;51.024;7.540;2023-02-12T11:01:19;47.40;;;32.63;;
15454;SDS011;21057;51.024;7.540;2023-02-12T11:03:50;48.27;;;33.87;;
15454;SDS011;21057;51.024;7.540;2023-02-12T11:06:19;44.77;;;33.67;;
15454;SDS011;21057;51.024;7.540;2023-02-12T11:08:49;46.53;;;35.37;;
15454;SDS011;21057;51.024;7.540;2023-02-12T11:11:21;47.87;;;34.77;;
15454;SDS011;21057;51.024;7.540;2023-02-12T11:13:54;44.73;;;32.80;;
15454;SDS011;21057;51.024;7.540;2023-02-12T11:16:28;41.87;;;31.40;;
15454;SDS011;21057;51.024;7.540;2023-02-12T11:18:57;43.53;;;32.30;;
15454;SDS011;21057;51.024;7.540;2023-02-12T11:21:25;37.23;;;32.27;;
15454;SDS011;21057;51.024;7.540;2023-02-12T11:23:53;44.70;;;33.97;;
15454;SDS011;21057;51.024;7.540;2023-02-12T11:26:31;42.53;;;33.37;;
15454;SDS011;21057;51.024;7.540;2023-02-12T11:28:59;42.83;;;33.17;;
15454;SDS011;21057;51.024;7.540;2023-02-12T11:31:29;44.60;;;32.47;;
15454;SDS011;21057;51.024;7.540;2023-02-12T11:34:05;33.90;;;30.40;;
15454;SDS011;21057;51.024;7.540;2023-02-12T11:36:34;34.60;;;30.97;;
15454;SDS011;21057;51.024;7.540;2023-02-12T11:39:03;33.87;;;30.53;;
15454;SDS011;21057;51.024;7.540;2023-02-12T11:41:38;36.30;;;31.57;;
15454;SDS011;21057;51.024;7.540;2023-02-12T11:50:39;34.07;;;30.70;;
15454;SDS011;21057;51.024;7.540;2023-02-12T11:53:19;32.93;;;29.67;;
15454;SDS011;21057;51.024;7.540;2023-02-12T11:55:53;35.20;;;31.50;;
15454;SDS011;21057;51.024;7.540;2023-02-12T11:58:25;34.47;;;30.70;;
15454;SDS011;21057;51.024;7.540;2023-02-12T12:01:00;32.80;;;29.70;;
15454;SDS011;21057;51.024;7.540;2023-02-12T12:03:36;42.73;;;34.50;;
15454;SDS011;21057;51.024;7.540;2023-02-12T12:09:02;29.87;;;27.23;;
15454;SDS011;21057;51.024;7.540;2023-02-12T12:11:45;30.03;;;27.33;;
15454;SDS011;21057;51.024;7.540;2023-02-12T12:14:21;28.63;;;26.23;;
15454;SDS011;21057;51.024;7.540;2023-02-12T12:16:53;28.77;;;26.27;;
15454;SDS011;21057;51.024;7.540;2023-02-12T12:19:51;28.20;;;25.77;;
15454;SDS011;21057;51.024;7.540;2023-02-12T12:22:35;29.20;;;26.63;;
15454;SDS011;21057;51.024;7.540;2023-02-12T12:25:10;28.67;;;26.47;;
15454;SDS011;21057;51.024;7.540;2023-02-12T12:27:46;27.30;;;25.30;;
15454;SDS011;21057;51.024;7.540;2023-02-12T12:30:42;26.57;;;24.33;;
15454;SDS011;21057;51.024;7.540;2023-02-12T12:33:19;24.93;;;23.23;;
15454;SDS011;21057;51.024;7.540;2023-02-12T12:35:57;27.50;;;25.53;;
15454;SDS011;21057;51.024;7.540;2023-02-12T12:38:39;26.23;;;24.53;;
15454;SDS011;21057;51.024;7.540;2023-02-12T12:41:14;27.00;;;25.10;;
15454;SDS011;21057;51.024;7.540;2023-02-12T12:43:49;27.23;;;25.40;;
15454;SDS011;21057;51.024;7.540;2023-02-12T12:46:32;26.50;;;24.80;;
15454;SDS011;21057;51.024;7.540;2023-02-12T12:49:19;24.47;;;22.60;;
15454;SDS011;21057;51.024;7.540;2023-02-12T12:52:02;24.63;;;22.83;;
15454;SDS011;21057;51.024;7.540;2023-02-12T12:54:48;24.60;;;22.90;;
15454;SDS011;21057;51.024;7.540;2023-02-12T12:57:32;25.17;;;23.57;;
15454;SDS011;21057;51.024;7.540;2023-02-12T13:00:26;25.77;;;24.10;;
15454;SDS011;21057;51.024;7.540;2023-02-12T13:06:40;25.53;;;23.93;;
15454;SDS011;21057;51.024;7.540;2023-02-12T13:12:37;24.40;;;22.70;;
15454;SDS011;21057;51.024;7.540;2023-02-12T13:15:18;23.63;;;22.17;;
15454;SDS011;21057;51.024;7.540;2023-02-12T13:17:55;25.00;;;23.40;;
15454;SDS011;21057;51.024;7.540;2023-02-12T13:20:32;26.50;;;24.60;;
15454;SDS011;21057;51.024;7.540;2023-02-12T13:23:10;26.57;;;24.87;;
15454;SDS011;21057;51.024;7.540;2023-02-12T13:25:46;26.33;;;24.63;;
15454;SDS011;21057;51.024;7.540;2023-02-12T13:28:29;27.33;;;25.37;;
15454;SDS011;21057;51.024;7.540;2023-02-12T13:31:01;26.50;;;24.73;;
15454;SDS011;21057;51.024;7.540;2023-02-12T13:33:36;26.80;;;24.87;;
15454;SDS011;21057;51.024;7.540;2023-02-12T13:36:09;26.83;;;25.20;;
15454;SDS011;21057;51.024;7.540;2023-02-12T13:38:39;27.77;;;25.87;;
15454;SDS011;21057;51.024;7.540;2023-02-12T13:41:11;27.20;;;25.30;;
15454;SDS011;21057;51.024;7.540;2023-02-12T13:43:47;26.97;;;25.27;;
15454;SDS011;21057;51.024;7.540;2023-02-12T13:46:38;28.50;;;26.43;;
15454;SDS011;21057;51.024;7.540;2023-02-12T13:49:16;27.37;;;25.57;;
15454;SDS011;21057;51.024;7.540;2023-02-12T13:51:52;27.30;;;25.30;;
15454;SDS011;21057;51.024;7.540;2023-02-12T13:54:39;27.47;;;25.47;;
15454;SDS011;21057;51.024;7.540;2023-02-12T13:57:17;27.60;;;25.47;;
15454;SDS011;21057;51.024;7.540;2023-02-12T13:59:46;27.93;;;25.90;;
15454;SDS011;21057;51.024;7.540;2023-02-12T14:05:22;26.97;;;24.97;;
15454;SDS011;21057;51.024;7.540;2023-02-12T14:07:56;27.00;;;24.97;;
15454;SDS011;21057;51.024;7.540;2023-02-12T14:10:33;27.57;;;25.50;;
15454;SDS011;21057;51.024;7.540;2023-02-12T14:13:12;27.17;;;25.37;;
15454;SDS011;21057;51.024;7.540;2023-02-12T14:15:43;27.00;;;25.07;;
15454;SDS011;21057;51.024;7.540;2023-02-12T14:18:28;27.07;;;25.13;;
15454;SDS011;21057;51.024;7.540;2023-02-12T14:27:24;30.87;;;28.10;;
15454;SDS011;21057;51.024;7.540;2023-02-12T14:32:58;28.23;;;25.97;;
15454;SDS011;21057;51.024;7.540;2023-02-12T14:35:36;29.73;;;27.37;;
15454;SDS011;21057;51.024;7.540;2023-02-12T14:38:55;30.30;;;27.63;;
15454;SDS011;21057;51.024;7.540;2023-02-12T14:41:26;28.73;;;26.53;;
15454;SDS011;21057;51.024;7.540;2023-02-12T14:50:19;27.50;;;25.50;;
15454;SDS011;21057;51.024;7.540;2023-02-12T14:52:52;28.73;;;26.43;;
15454;SDS011;21057;51.024;7.540;2023-02-12T14:55:24;28.00;;;26.00;;
15454;SDS011;21057;51.024;7.540;2023-02-12T14:57:55;29.13;;;27.03;;
15454;SDS011;21057;51.024;7.540;2023-02-12T15:00:26;28.33;;;26.33;;
15454;SDS011;21057;51.024;7.540;2023-02-12T15:02:58;29.23;;;27.03;;
15454;SDS011;21057;51.024;7.540;2023-02-12T15:05:31;28.13;;;26.03;;
15454;SDS011;21057;51.024;7.540;2023-02-12T15:08:04;26.60;;;24.73;;
15454;SDS011;21057;51.024;7.540;2023-02-12T15:10:38;27.33;;;25.43;;
15454;SDS011;21057;51.024;7.540;2023-02-12T15:13:14;27.50;;;25.40;;
15454;SDS011;21057;51.024;7.540;2023-02-12T15:15:49;27.37;;;25.47;;
15454;SDS011;21057;51.024;7.540;2023-02-12T15:18:23;26.37;;;24.50;;
15454;SDS011;21057;51.024;7.540;2023-02-12T15:20:55;27.13;;;24.87;;
15454;SDS011;21057;51.024;7.540;2023-02-12T15:23:37;26.70;;;24.67;;
15454;SDS011;21057;51.024;7.540;2023-02-12T15:26:17;27.10;;;25.07;;
15454;SDS011;21057;51.024;7.540;2023-02-12T15:28:45;26.23;;;24.10;;
15454;SDS011;21057;51.024;7.540;2023-02-12T15:31:15;28.40;;;26.07;;